Rechercher aéroport 
image banner adimage banner ad
image banner ad

SVON - Cabimas

Situé à Oro Negro Zulia, Venezuela

ICAO - SVON, IATA - CBS

Données fournies par Airmate  

Information générale

Coordonnées: N10°19'48" W71°19'21"
Élévation : 164 feet MSL.
 
Voir autres Aéroports à Zulia

Données opérationnelles

Accessible au public
Heure actuelle UTC:
Heure actuelle locale:
Météo à : SVMC - Maracaibo / La Chinita Intl ( 51 km )
METAR: SVMC 310402Z AUTO 04004KT NCD 27/24 Q1010
TAF: TAF SVMC 302200Z 3100/0100 08010KT 9999 SCT013 TX34/3119Z TN23/3108Z BECMG 3100/3104 10002KT 9000 -DZ BKN016
Voir NOTAMs / SUP AIP / TFR affectant cet aéroport [VIEW]
Fréquences de communication: [VIEW]

Pistes:

Identifiant RWYQFULongueur (ft)Largeur (ft)SurfaceLDA (ft)
0656°616095ASP
2400

Coordonnées de l'aéroport

Adresse: Oro Negro Zulia Venezuela

Vue satellite de SVON